sensor_id;sensor_type;location;lat;lon;timestamp;P1;durP1;ratioP1;P2;durP2;ratioP2
17369;SDS011;8802;52.402;4.920;2023-03-13T00:01:48;15.48;;;5.30;;
17369;SDS011;8802;52.402;4.920;2023-03-13T00:04:16;16.98;;;5.35;;
17369;SDS011;8802;52.402;4.920;2023-03-13T00:06:44;19.10;;;5.53;;
17369;SDS011;8802;52.402;4.920;2023-03-13T00:09:11;20.55;;;6.07;;
17369;SDS011;8802;52.402;4.920;2023-03-13T00:11:40;18.70;;;5.45;;
17369;SDS011;8802;52.402;4.920;2023-03-13T00:14:07;17.88;;;5.43;;
17369;SDS011;8802;52.402;4.920;2023-03-13T00:16:34;14.80;;;4.70;;
17369;SDS011;8802;52.402;4.920;2023-03-13T00:19:02;16.35;;;5.63;;
17369;SDS011;8802;52.402;4.920;2023-03-13T00:21:30;14.65;;;4.45;;
17369;SDS011;8802;52.402;4.920;2023-03-13T00:23:58;19.83;;;4.95;;
17369;SDS011;8802;52.402;4.920;2023-03-13T00:26:26;16.70;;;4.85;;
17369;SDS011;8802;52.402;4.920;2023-03-13T00:28:54;15.00;;;4.45;;
17369;SDS011;8802;52.402;4.920;2023-03-13T00:31:21;15.23;;;5.18;;
17369;SDS011;8802;52.402;4.920;2023-03-13T00:33:50;14.88;;;5.18;;
17369;SDS011;8802;52.402;4.920;2023-03-13T00:36:19;15.05;;;5.28;;
17369;SDS011;8802;52.402;4.920;2023-03-13T00:38:48;14.00;;;5.38;;
17369;SDS011;8802;52.402;4.920;2023-03-13T00:41:16;12.68;;;4.57;;
17369;SDS011;8802;52.402;4.920;2023-03-13T00:43:44;19.40;;;5.13;;
17369;SDS011;8802;52.402;4.920;2023-03-13T00:46:13;17.50;;;4.75;;
17369;SDS011;8802;52.402;4.920;2023-03-13T00:48:41;8.18;;;4.30;;
17369;SDS011;8802;52.402;4.920;2023-03-13T00:51:08;11.98;;;4.15;;
17369;SDS011;8802;52.402;4.920;2023-03-13T00:53:35;16.52;;;4.75;;
17369;SDS011;8802;52.402;4.920;2023-03-13T00:56:05;13.15;;;4.18;;
17369;SDS011;8802;52.402;4.920;2023-03-13T00:58:34;9.63;;;4.05;;
17369;SDS011;8802;52.402;4.920;2023-03-13T01:01:05;12.15;;;4.25;;
17369;SDS011;8802;52.402;4.920;2023-03-13T01:03:33;11.07;;;4.10;;
17369;SDS011;8802;52.402;4.920;2023-03-13T01:06:01;9.40;;;3.50;;
17369;SDS011;8802;52.402;4.920;2023-03-13T01:08:29;10.43;;;3.97;;
17369;SDS011;8802;52.402;4.920;2023-03-13T01:10:57;6.20;;;3.35;;
17369;SDS011;8802;52.402;4.920;2023-03-13T01:13:26;8.57;;;3.63;;
17369;SDS011;8802;52.402;4.920;2023-03-13T01:15:53;11.25;;;3.95;;
17369;SDS011;8802;52.402;4.920;2023-03-13T01:18:20;11.60;;;4.90;;
17369;SDS011;8802;52.402;4.920;2023-03-13T01:20:47;7.93;;;4.15;;
17369;SDS011;8802;52.402;4.920;2023-03-13T01:23:14;8.73;;;4.45;;
17369;SDS011;8802;52.402;4.920;2023-03-13T01:25:40;9.25;;;4.70;;
17369;SDS011;8802;52.402;4.920;2023-03-13T01:28:07;6.93;;;4.00;;
17369;SDS011;8802;52.402;4.920;2023-03-13T01:30:35;7.50;;;4.10;;
17369;SDS011;8802;52.402;4.920;2023-03-13T01:33:02;5.70;;;3.92;;
17369;SDS011;8802;52.402;4.920;2023-03-13T01:35:29;6.22;;;3.95;;
17369;SDS011;8802;52.402;4.920;2023-03-13T01:37:56;5.38;;;3.88;;
17369;SDS011;8802;52.402;4.920;2023-03-13T01:40:23;5.53;;;4.45;;
17369;SDS011;8802;52.402;4.920;2023-03-13T01:42:53;7.32;;;4.03;;
17369;SDS011;8802;52.402;4.920;2023-03-13T01:48:27;6.97;;;4.30;;
17369;SDS011;8802;52.402;4.920;2023-03-13T01:50:59;7.72;;;4.78;;
17369;SDS011;8802;52.402;4.920;2023-03-13T01:53:28;7.10;;;4.60;;
17369;SDS011;8802;52.402;4.920;2023-03-13T01:55:58;7.20;;;4.90;;
17369;SDS011;8802;52.402;4.920;2023-03-13T01:58:26;7.95;;;5.03;;
17369;SDS011;8802;52.402;4.920;2023-03-13T02:00:54;8.23;;;5.35;;
17369;SDS011;8802;52.402;4.920;2023-03-13T02:03:23;6.35;;;5.28;;
17369;SDS011;8802;52.402;4.920;2023-03-13T02:05:52;11.13;;;6.20;;
17369;SDS011;8802;52.402;4.920;2023-03-13T02:08:22;8.25;;;5.82;;
17369;SDS011;8802;52.402;4.920;2023-03-13T02:10:52;7.35;;;5.65;;
17369;SDS011;8802;52.402;4.920;2023-03-13T02:13:26;9.07;;;6.57;;
17369;SDS011;8802;52.402;4.920;2023-03-13T02:15:54;8.13;;;6.18;;
17369;SDS011;8802;52.402;4.920;2023-03-13T02:18:23;7.47;;;6.80;;
17369;SDS011;8802;52.402;4.920;2023-03-13T02:20:50;7.75;;;6.95;;
17369;SDS011;8802;52.402;4.920;2023-03-13T02:23:23;7.75;;;7.03;;
17369;SDS011;8802;52.402;4.920;2023-03-13T02:25:57;8.40;;;7.15;;
17369;SDS011;8802;52.402;4.920;2023-03-13T02:28:26;8.30;;;7.45;;
17369;SDS011;8802;52.402;4.920;2023-03-13T02:30:58;7.45;;;6.75;;
17369;SDS011;8802;52.402;4.920;2023-03-13T02:33:26;10.25;;;7.00;;
17369;SDS011;8802;52.402;4.920;2023-03-13T02:35:55;7.82;;;7.03;;
17369;SDS011;8802;52.402;4.920;2023-03-13T02:38:24;8.63;;;7.72;;
17369;SDS011;8802;52.402;4.920;2023-03-13T02:40:53;10.35;;;8.55;;
17369;SDS011;8802;52.402;4.920;2023-03-13T02:43:25;9.60;;;8.73;;
17369;SDS011;8802;52.402;4.920;2023-03-13T02:46:05;10.10;;;8.90;;
17369;SDS011;8802;52.402;4.920;2023-03-13T02:48:36;9.43;;;8.52;;
17369;SDS011;8802;52.402;4.920;2023-03-13T02:51:05;10.57;;;9.55;;
17369;SDS011;8802;52.402;4.920;2023-03-13T02:53:38;11.25;;;10.25;;
17369;SDS011;8802;52.402;4.920;2023-03-13T02:56:05;10.10;;;9.13;;
17369;SDS011;8802;52.402;4.920;2023-03-13T02:58:40;10.27;;;9.45;;
17369;SDS011;8802;52.402;4.920;2023-03-13T03:01:08;10.82;;;9.80;;
17369;SDS011;8802;52.402;4.920;2023-03-13T03:03:35;11.60;;;10.38;;
17369;SDS011;8802;52.402;4.920;2023-03-13T03:06:02;11.88;;;10.68;;
17369;SDS011;8802;52.402;4.920;2023-03-13T03:08:30;10.57;;;9.57;;
17369;SDS011;8802;52.402;4.920;2023-03-13T03:10:58;10.07;;;9.10;;
17369;SDS011;8802;52.402;4.920;2023-03-13T03:13:25;11.60;;;9.15;;
17369;SDS011;8802;52.402;4.920;2023-03-13T03:15:53;11.70;;;8.70;;
17369;SDS011;8802;52.402;4.920;2023-03-13T03:18:20;10.50;;;9.38;;
17369;SDS011;8802;52.402;4.920;2023-03-13T03:20:47;10.07;;;8.18;;
17369;SDS011;8802;52.402;4.920;2023-03-13T03:23:13;12.02;;;8.70;;
17369;SDS011;8802;52.402;4.920;2023-03-13T03:25:40;12.43;;;9.25;;
17369;SDS011;8802;52.402;4.920;2023-03-13T03:28:07;10.90;;;8.25;;
17369;SDS011;8802;52.402;4.920;2023-03-13T03:30:34;8.15;;;7.28;;
17369;SDS011;8802;52.402;4.920;2023-03-13T03:33:03;11.07;;;7.45;;
17369;SDS011;8802;52.402;4.920;2023-03-13T03:35:30;9.73;;;6.82;;
17369;SDS011;8802;52.402;4.920;2023-03-13T03:37:58;11.50;;;7.00;;
17369;SDS011;8802;52.402;4.920;2023-03-13T03:40:25;9.48;;;5.88;;
17369;SDS011;8802;52.402;4.920;2023-03-13T03:42:52;9.73;;;5.25;;
17369;SDS011;8802;52.402;4.920;2023-03-13T03:45:19;10.25;;;4.72;;
17369;SDS011;8802;52.402;4.920;2023-03-13T03:47:45;7.20;;;3.83;;
17369;SDS011;8802;52.402;4.920;2023-03-13T03:50:14;9.98;;;3.97;;
17369;SDS011;8802;52.402;4.920;2023-03-13T03:52:41;8.63;;;3.67;;
17369;SDS011;8802;52.402;4.920;2023-03-13T03:55:08;10.77;;;3.60;;
17369;SDS011;8802;52.402;4.920;2023-03-13T03:57:35;8.07;;;3.60;;
17369;SDS011;8802;52.402;4.920;2023-03-13T04:00:02;8.18;;;3.40;;
17369;SDS011;8802;52.402;4.920;2023-03-13T04:02:32;6.68;;;3.25;;
17369;SDS011;8802;52.402;4.920;2023-03-13T04:04:58;5.68;;;2.90;;
17369;SDS011;8802;52.402;4.920;2023-03-13T04:07:26;7.55;;;3.45;;
17369;SDS011;8802;52.402;4.920;2023-03-13T04:09:53;7.05;;;3.80;;
17369;SDS011;8802;52.402;4.920;2023-03-13T04:12:20;6.60;;;3.17;;
17369;SDS011;8802;52.402;4.920;2023-03-13T04:14:47;5.53;;;3.40;;
17369;SDS011;8802;52.402;4.920;2023-03-13T04:17:14;7.88;;;4.03;;
17369;SDS011;8802;52.402;4.920;2023-03-13T04:19:42;5.53;;;2.92;;
17369;SDS011;8802;52.402;4.920;2023-03-13T04:22:08;6.53;;;3.45;;
17369;SDS011;8802;52.402;4.920;2023-03-13T04:24:37;4.28;;;2.70;;
17369;SDS011;8802;52.402;4.920;2023-03-13T04:27:03;4.90;;;3.08;;
17369;SDS011;8802;52.402;4.920;2023-03-13T04:29:31;5.35;;;2.83;;
17369;SDS011;8802;52.402;4.920;2023-03-13T04:31:59;6.97;;;3.08;;
17369;SDS011;8802;52.402;4.920;2023-03-13T04:34:25;4.65;;;3.17;;
17369;SDS011;8802;52.402;4.920;2023-03-13T04:36:52;5.80;;;2.83;;
17369;SDS011;8802;52.402;4.920;2023-03-13T04:39:19;5.22;;;2.85;;
17369;SDS011;8802;52.402;4.920;2023-03-13T04:41:50;4.63;;;2.80;;
17369;SDS011;8802;52.402;4.920;2023-03-13T04:44:17;7.05;;;3.25;;
17369;SDS011;8802;52.402;4.920;2023-03-13T04:46:44;6.53;;;2.90;;
17369;SDS011;8802;52.402;4.920;2023-03-13T04:49:11;4.65;;;3.15;;
17369;SDS011;8802;52.402;4.920;2023-03-13T04:51:38;5.43;;;3.30;;
17369;SDS011;8802;52.402;4.920;2023-03-13T04:54:05;6.95;;;3.30;;
17369;SDS011;8802;52.402;4.920;2023-03-13T04:56:32;7.93;;;3.40;;
17369;SDS011;8802;52.402;4.920;2023-03-13T04:59:01;7.00;;;3.65;;
17369;SDS011;8802;52.402;4.920;2023-03-13T05:01:27;9.93;;;3.55;;
17369;SDS011;8802;52.402;4.920;2023-03-13T05:03:54;6.10;;;3.58;;
17369;SDS011;8802;52.402;4.920;2023-03-13T05:06:21;9.55;;;4.03;;
17369;SDS011;8802;52.402;4.920;2023-03-13T05:08:48;10.18;;;4.38;;
17369;SDS011;8802;52.402;4.920;2023-03-13T05:11:15;7.90;;;3.70;;
17369;SDS011;8802;52.402;4.920;2023-03-13T05:13:42;7.65;;;3.92;;
17369;SDS011;8802;52.402;4.920;2023-03-13T05:16:10;10.65;;;4.07;;
17369;SDS011;8802;52.402;4.920;2023-03-13T05:18:37;8.32;;;4.07;;
17369;SDS011;8802;52.402;4.920;2023-03-13T05:21:04;6.82;;;4.28;;
17369;SDS011;8802;52.402;4.920;2023-03-13T05:23:31;9.27;;;4.13;;
17369;SDS011;8802;52.402;4.920;2023-03-13T05:25:58;7.63;;;4.03;;
17369;SDS011;8802;52.402;4.920;2023-03-13T05:28:25;9.55;;;4.03;;
17369;SDS011;8802;52.402;4.920;2023-03-13T05:30:52;11.20;;;4.38;;
17369;SDS011;8802;52.402;4.920;2023-03-13T05:33:20;9.20;;;4.00;;
17369;SDS011;8802;52.402;4.920;2023-03-13T05:35:47;8.57;;;4.28;;
17369;SDS011;8802;52.402;4.920;2023-03-13T05:38:14;11.90;;;5.07;;
17369;SDS011;8802;52.402;4.920;2023-03-13T05:40:41;7.97;;;3.83;;
17369;SDS011;8802;52.402;4.920;2023-03-13T05:43:08;10.70;;;4.10;;
17369;SDS011;8802;52.402;4.920;2023-03-13T05:45:35;12.77;;;3.88;;
17369;SDS011;8802;52.402;4.920;2023-03-13T05:48:01;10.60;;;3.92;;
17369;SDS011;8802;52.402;4.920;2023-03-13T05:50:30;11.45;;;3.40;;
17369;SDS011;8802;52.402;4.920;2023-03-13T05:52:56;9.57;;;3.65;;
17369;SDS011;8802;52.402;4.920;2023-03-13T05:55:23;8.73;;;3.58;;
17369;SDS011;8802;52.402;4.920;2023-03-13T05:57:50;7.95;;;3.65;;
17369;SDS011;8802;52.402;4.920;2023-03-13T06:00:17;8.25;;;3.40;;
17369;SDS011;8802;52.402;4.920;2023-03-13T06:02:44;10.52;;;3.55;;
17369;SDS011;8802;52.402;4.920;2023-03-13T06:05:11;7.70;;;3.63;;
17369;SDS011;8802;52.402;4.920;2023-03-13T06:07:39;11.82;;;3.83;;
17369;SDS011;8802;52.402;4.920;2023-03-13T06:10:07;9.38;;;3.20;;
17369;SDS011;8802;52.402;4.920;2023-03-13T06:12:34;13.07;;;3.95;;
17369;SDS011;8802;52.402;4.920;2023-03-13T06:15:01;10.77;;;3.45;;
17369;SDS011;8802;52.402;4.920;2023-03-13T06:17:30;8.40;;;3.67;;
17369;SDS011;8802;52.402;4.920;2023-03-13T06:19:57;12.77;;;3.85;;
17369;SDS011;8802;52.402;4.920;2023-03-13T06:22:24;10.57;;;3.30;;
17369;SDS011;8802;52.402;4.920;2023-03-13T06:24:52;9.23;;;3.45;;
17369;SDS011;8802;52.402;4.920;2023-03-13T06:27:19;9.20;;;3.33;;
17369;SDS011;8802;52.402;4.920;2023-03-13T06:29:46;8.82;;;3.13;;
17369;SDS011;8802;52.402;4.920;2023-03-13T06:32:12;8.20;;;3.17;;
17369;SDS011;8802;52.402;4.920;2023-03-13T06:34:39;6.07;;;2.90;;
17369;SDS011;8802;52.402;4.920;2023-03-13T06:37:06;9.65;;;3.17;;
17369;SDS011;8802;52.402;4.920;2023-03-13T06:39:33;8.38;;;3.30;;
17369;SDS011;8802;52.402;4.920;2023-03-13T06:42:01;6.30;;;2.97;;
17369;SDS011;8802;52.402;4.920;2023-03-13T06:44:28;5.78;;;2.97;;
17369;SDS011;8802;52.402;4.920;2023-03-13T06:46:55;8.80;;;3.20;;
17369;SDS011;8802;52.402;4.920;2023-03-13T06:49:22;9.38;;;3.40;;
17369;SDS011;8802;52.402;4.920;2023-03-13T06:51:48;9.43;;;3.50;;
17369;SDS011;8802;52.402;4.920;2023-03-13T06:54:15;9.40;;;3.38;;
17369;SDS011;8802;52.402;4.920;2023-03-13T06:56:42;6.47;;;3.05;;
17369;SDS011;8802;52.402;4.920;2023-03-13T06:59:10;6.72;;;2.83;;
17369;SDS011;8802;52.402;4.920;2023-03-13T07:01:37;6.68;;;3.40;;
17369;SDS011;8802;52.402;4.920;2023-03-13T07:04:04;6.65;;;3.08;;
17369;SDS011;8802;52.402;4.920;2023-03-13T07:06:31;6.10;;;2.95;;
17369;SDS011;8802;52.402;4.920;2023-03-13T07:08:57;5.05;;;2.60;;
17369;SDS011;8802;52.402;4.920;2023-03-13T07:11:24;4.65;;;2.70;;
17369;SDS011;8802;52.402;4.920;2023-03-13T07:13:53;7.13;;;2.85;;
17369;SDS011;8802;52.402;4.920;2023-03-13T07:16:22;4.30;;;2.70;;
17369;SDS011;8802;52.402;4.920;2023-03-13T07:18:49;7.82;;;3.40;;
17369;SDS011;8802;52.402;4.920;2023-03-13T07:21:16;8.40;;;2.70;;
17369;SDS011;8802;52.402;4.920;2023-03-13T07:23:43;6.07;;;2.85;;
17369;SDS011;8802;52.402;4.920;2023-03-13T07:26:10;7.22;;;2.45;;
17369;SDS011;8802;52.402;4.920;2023-03-13T07:28:39;5.22;;;2.28;;
17369;SDS011;8802;52.402;4.920;2023-03-13T07:31:06;4.65;;;1.92;;
17369;SDS011;8802;52.402;4.920;2023-03-13T07:33:36;6.65;;;2.53;;
17369;SDS011;8802;52.402;4.920;2023-03-13T07:36:04;6.38;;;2.22;;
17369;SDS011;8802;52.402;4.920;2023-03-13T07:38:32;6.35;;;1.73;;
17369;SDS011;8802;52.402;4.920;2023-03-13T07:40:59;5.20;;;2.00;;
17369;SDS011;8802;52.402;4.920;2023-03-13T07:43:26;7.68;;;2.17;;
17369;SDS011;8802;52.402;4.920;2023-03-13T07:45:56;4.38;;;1.80;;
17369;SDS011;8802;52.402;4.920;2023-03-13T07:48:24;9.30;;;2.28;;
17369;SDS011;8802;52.402;4.920;2023-03-13T07:50:55;5.97;;;2.15;;
17369;SDS011;8802;52.402;4.920;2023-03-13T07:53:23;7.13;;;2.42;;
17369;SDS011;8802;52.402;4.920;2023-03-13T07:55:53;7.32;;;2.20;;
17369;SDS011;8802;52.402;4.920;2023-03-13T07:58:22;12.20;;;2.80;;
17369;SDS011;8802;52.402;4.920;2023-03-13T08:00:50;8.35;;;2.53;;
17369;SDS011;8802;52.402;4.920;2023-03-13T08:03:17;9.25;;;2.70;;
17369;SDS011;8802;52.402;4.920;2023-03-13T08:05:44;7.78;;;3.03;;
17369;SDS011;8802;52.402;4.920;2023-03-13T08:08:12;11.32;;;3.08;;
17369;SDS011;8802;52.402;4.920;2023-03-13T08:10:39;7.82;;;2.67;;
17369;SDS011;8802;52.402;4.920;2023-03-13T08:13:06;11.68;;;3.05;;
17369;SDS011;8802;52.402;4.920;2023-03-13T08:15:33;9.63;;;2.78;;
17369;SDS011;8802;52.402;4.920;2023-03-13T08:17:59;11.25;;;2.80;;
17369;SDS011;8802;52.402;4.920;2023-03-13T08:20:26;8.95;;;3.00;;
17369;SDS011;8802;52.402;4.920;2023-03-13T08:22:54;9.80;;;3.55;;
17369;SDS011;8802;52.402;4.920;2023-03-13T08:25:23;8.35;;;2.60;;
17369;SDS011;8802;52.402;4.920;2023-03-13T08:27:50;10.27;;;2.92;;
17369;SDS011;8802;52.402;4.920;2023-03-13T08:30:17;7.18;;;2.58;;
17369;SDS011;8802;52.402;4.920;2023-03-13T08:32:44;10.68;;;3.00;;
17369;SDS011;8802;52.402;4.920;2023-03-13T08:35:11;7.57;;;2.30;;
17369;SDS011;8802;52.402;4.920;2023-03-13T08:37:38;9.45;;;3.03;;
17369;SDS011;8802;52.402;4.920;2023-03-13T08:40:05;8.90;;;2.40;;
17369;SDS011;8802;52.402;4.920;2023-03-13T08:42:37;8.98;;;2.85;;
17369;SDS011;8802;52.402;4.920;2023-03-13T08:45:05;6.85;;;2.60;;
17369;SDS011;8802;52.402;4.920;2023-03-13T08:47:32;8.52;;;2.83;;
17369;SDS011;8802;52.402;4.920;2023-03-13T08:50:00;7.55;;;2.40;;
17369;SDS011;8802;52.402;4.920;2023-03-13T08:52:27;8.98;;;2.83;;
17369;SDS011;8802;52.402;4.920;2023-03-13T08:54:54;9.13;;;2.80;;
17369;SDS011;8802;52.402;4.920;2023-03-13T08:57:20;11.35;;;2.72;;
17369;SDS011;8802;52.402;4.920;2023-03-13T08:59:49;12.02;;;3.47;;
17369;SDS011;8802;52.402;4.920;2023-03-13T09:02:16;11.60;;;3.47;;
17369;SDS011;8802;52.402;4.920;2023-03-13T09:04:45;9.30;;;2.90;;
17369;SDS011;8802;52.402;4.920;2023-03-13T09:07:13;8.90;;;2.50;;
17369;SDS011;8802;52.402;4.920;2023-03-13T09:09:41;11.88;;;2.40;;
17369;SDS011;8802;52.402;4.920;2023-03-13T09:12:08;13.15;;;3.17;;
17369;SDS011;8802;52.402;4.920;2023-03-13T09:14:36;9.98;;;2.75;;
17369;SDS011;8802;52.402;4.920;2023-03-13T09:17:04;12.95;;;3.00;;
17369;SDS011;8802;52.402;4.920;2023-03-13T09:19:31;13.45;;;2.70;;
17369;SDS011;8802;52.402;4.920;2023-03-13T09:21:58;16.67;;;4.22;;
17369;SDS011;8802;52.402;4.920;2023-03-13T09:24:25;13.05;;;3.13;;
17369;SDS011;8802;52.402;4.920;2023-03-13T09:26:52;14.07;;;2.78;;
17369;SDS011;8802;52.402;4.920;2023-03-13T09:29:19;17.20;;;3.70;;
17369;SDS011;8802;52.402;4.920;2023-03-13T09:31:46;13.60;;;3.40;;
17369;SDS011;8802;52.402;4.920;2023-03-13T09:34:14;13.82;;;3.53;;
17369;SDS011;8802;52.402;4.920;2023-03-13T09:36:41;12.95;;;3.53;;
17369;SDS011;8802;52.402;4.920;2023-03-13T09:39:08;15.57;;;3.40;;
17369;SDS011;8802;52.402;4.920;2023-03-13T09:41:35;16.30;;;3.25;;
17369;SDS011;8802;52.402;4.920;2023-03-13T09:44:09;14.73;;;2.90;;
17369;SDS011;8802;52.402;4.920;2023-03-13T09:46:41;10.75;;;3.33;;
17369;SDS011;8802;52.402;4.920;2023-03-13T09:49:16;11.35;;;2.83;;
17369;SDS011;8802;52.402;4.920;2023-03-13T09:51:53;7.55;;;2.50;;
17369;SDS011;8802;52.402;4.920;2023-03-13T09:54:27;6.07;;;2.30;;
17369;SDS011;8802;52.402;4.920;2023-03-13T09:57:02;10.05;;;2.58;;
17369;SDS011;8802;52.402;4.920;2023-03-13T09:59:36;7.10;;;1.92;;
17369;SDS011;8802;52.402;4.920;2023-03-13T10:02:15;9.30;;;2.75;;
17369;SDS011;8802;52.402;4.920;2023-03-13T10:04:58;8.20;;;2.22;;
17369;SDS011;8802;52.402;4.920;2023-03-13T10:07:30;7.40;;;2.08;;
17369;SDS011;8802;52.402;4.920;2023-03-13T10:09:57;7.05;;;2.13;;
17369;SDS011;8802;52.402;4.920;2023-03-13T10:12:26;7.25;;;1.80;;
17369;SDS011;8802;52.402;4.920;2023-03-13T10:15:00;8.57;;;2.22;;
17369;SDS011;8802;52.402;4.920;2023-03-13T10:17:41;8.32;;;2.00;;
17369;SDS011;8802;52.402;4.920;2023-03-13T10:20:15;9.00;;;2.15;;
17369;SDS011;8802;52.402;4.920;2023-03-13T10:22:47;9.45;;;2.05;;
17369;SDS011;8802;52.402;4.920;2023-03-13T10:25:20;8.27;;;2.42;;
17369;SDS011;8802;52.402;4.920;2023-03-13T10:27:53;6.60;;;1.88;;
17369;SDS011;8802;52.402;4.920;2023-03-13T10:30:21;8.63;;;1.80;;
17369;SDS011;8802;52.402;4.920;2023-03-13T10:32:50;8.82;;;2.10;;
17369;SDS011;8802;52.402;4.920;2023-03-13T10:35:22;5.53;;;1.98;;
17369;SDS011;8802;52.402;4.920;2023-03-13T10:37:50;5.82;;;1.77;;
17369;SDS011;8802;52.402;4.920;2023-03-13T10:40:27;7.68;;;2.40;;
17369;SDS011;8802;52.402;4.920;2023-03-13T10:42:59;5.75;;;1.75;;
17369;SDS011;8802;52.402;4.920;2023-03-13T10:45:30;8.35;;;2.03;;
17369;SDS011;8802;52.402;4.920;2023-03-13T10:47:59;11.65;;;2.42;;
17369;SDS011;8802;52.402;4.920;2023-03-13T10:50:33;8.18;;;2.20;;
17369;SDS011;8802;52.402;4.920;2023-03-13T10:53:06;9.02;;;2.33;;
17369;SDS011;8802;52.402;4.920;2023-03-13T10:55:45;9.63;;;2.30;;
17369;SDS011;8802;52.402;4.920;2023-03-13T10:58:16;9.32;;;2.45;;
17369;SDS011;8802;52.402;4.920;2023-03-13T11:00:46;9.65;;;2.33;;
17369;SDS011;8802;52.402;4.920;2023-03-13T11:03:14;10.55;;;2.92;;
17369;SDS011;8802;52.402;4.920;2023-03-13T11:05:45;10.20;;;2.38;;
17369;SDS011;8802;52.402;4.920;2023-03-13T11:08:22;10.23;;;2.25;;
17369;SDS011;8802;52.402;4.920;2023-03-13T11:10:57;11.32;;;2.70;;
17369;SDS011;8802;52.402;4.920;2023-03-13T11:13:30;8.52;;;2.47;;
17369;SDS011;8802;52.402;4.920;2023-03-13T11:16:02;13.48;;;2.80;;
17369;SDS011;8802;52.402;4.920;2023-03-13T11:18:46;8.52;;;2.08;;
17369;SDS011;8802;52.402;4.920;2023-03-13T11:21:38;9.65;;;2.33;;
17369;SDS011;8802;52.402;4.920;2023-03-13T11:24:14;11.38;;;2.90;;
17369;SDS011;8802;52.402;4.920;2023-03-13T11:26:50;9.57;;;2.85;;
17369;SDS011;8802;52.402;4.920;2023-03-13T11:29:23;8.77;;;2.60;;
17369;SDS011;8802;52.402;4.920;2023-03-13T11:31:56;13.50;;;3.25;;
17369;SDS011;8802;52.402;4.920;2023-03-13T11:34:26;15.25;;;3.03;;
17369;SDS011;8802;52.402;4.920;2023-03-13T11:37:02;11.68;;;2.97;;
17369;SDS011;8802;52.402;4.920;2023-03-13T11:39:38;15.20;;;3.35;;
17369;SDS011;8802;52.402;4.920;2023-03-13T11:42:17;12.07;;;2.90;;
17369;SDS011;8802;52.402;4.920;2023-03-13T11:45:02;15.38;;;3.13;;
17369;SDS011;8802;52.402;4.920;2023-03-13T11:47:37;16.55;;;3.75;;
17369;SDS011;8802;52.402;4.920;2023-03-13T11:50:14;10.65;;;2.85;;
17369;SDS011;8802;52.402;4.920;2023-03-13T11:52:59;16.55;;;3.83;;
17369;SDS011;8802;52.402;4.920;2023-03-13T11:55:40;15.63;;;3.88;;
17369;SDS011;8802;52.402;4.920;2023-03-13T11:58:20;13.95;;;3.67;;
17369;SDS011;8802;52.402;4.920;2023-03-13T12:00:56;15.32;;;4.10;;
17369;SDS011;8802;52.402;4.920;2023-03-13T12:03:28;13.82;;;3.83;;
17369;SDS011;8802;52.402;4.920;2023-03-13T12:06:01;14.43;;;4.00;;
17369;SDS011;8802;52.402;4.920;2023-03-13T12:08:33;19.25;;;4.57;;
17369;SDS011;8802;52.402;4.920;2023-03-13T12:11:07;17.73;;;4.63;;
17369;SDS011;8802;52.402;4.920;2023-03-13T12:13:41;18.23;;;3.60;;
17369;SDS011;8802;52.402;4.920;2023-03-13T12:16:13;15.75;;;4.78;;
17369;SDS011;8802;52.402;4.920;2023-03-13T12:18:44;17.90;;;4.22;;
17369;SDS011;8802;52.402;4.920;2023-03-13T12:21:16;11.07;;;3.30;;
17369;SDS011;8802;52.402;4.920;2023-03-13T12:23:49;18.08;;;3.90;;
17369;SDS011;8802;52.402;4.920;2023-03-13T12:26:24;18.20;;;3.97;;
17369;SDS011;8802;52.402;4.920;2023-03-13T12:29:00;17.50;;;4.13;;
17369;SDS011;8802;52.402;4.920;2023-03-13T12:31:35;16.50;;;4.40;;
17369;SDS011;8802;52.402;4.920;2023-03-13T12:34:08;17.10;;;4.53;;
17369;SDS011;8802;52.402;4.920;2023-03-13T12:36:41;18.98;;;4.75;;
17369;SDS011;8802;52.402;4.920;2023-03-13T12:39:21;13.55;;;4.25;;
17369;SDS011;8802;52.402;4.920;2023-03-13T12:41:59;14.13;;;4.20;;
17369;SDS011;8802;52.402;4.920;2023-03-13T12:44:45;17.17;;;4.32;;
17369;SDS011;8802;52.402;4.920;2023-03-13T12:47:15;18.00;;;4.68;;
17369;SDS011;8802;52.402;4.920;2023-03-13T12:52:57;17.55;;;3.97;;
17369;SDS011;8802;52.402;4.920;2023-03-13T12:55:57;21.73;;;4.30;;
17369;SDS011;8802;52.402;4.920;2023-03-13T12:58:43;15.60;;;3.78;;
17369;SDS011;8802;52.402;4.920;2023-03-13T13:01:15;14.35;;;3.45;;
17369;SDS011;8802;52.402;4.920;2023-03-13T13:03:51;16.85;;;3.90;;
17369;SDS011;8802;52.402;4.920;2023-03-13T13:06:20;13.77;;;4.43;;
17369;SDS011;8802;52.402;4.920;2023-03-13T13:09:00;17.23;;;3.90;;
17369;SDS011;8802;52.402;4.920;2023-03-13T13:11:48;17.48;;;4.13;;
17369;SDS011;8802;52.402;4.920;2023-03-13T13:17:33;17.00;;;3.83;;
17369;SDS011;8802;52.402;4.920;2023-03-13T13:23:35;17.27;;;4.30;;
17369;SDS011;8802;52.402;4.920;2023-03-13T13:32:28;18.42;;;4.90;;
17369;SDS011;8802;52.402;4.920;2023-03-13T13:35:00;22.33;;;4.90;;
17369;SDS011;8802;52.402;4.920;2023-03-13T13:37:30;16.58;;;3.88;;
17369;SDS011;8802;52.402;4.920;2023-03-13T13:40:17;19.17;;;4.38;;
17369;SDS011;8802;52.402;4.920;2023-03-13T13:42:48;18.20;;;4.53;;
17369;SDS011;8802;52.402;4.920;2023-03-13T13:45:19;21.92;;;5.57;;
17369;SDS011;8802;52.402;4.920;2023-03-13T13:53:49;21.65;;;5.20;;
17369;SDS011;8802;52.402;4.920;2023-03-13T14:02:15;16.88;;;3.67;;
17369;SDS011;8802;52.402;4.920;2023-03-13T14:04:51;19.38;;;4.47;;
17369;SDS011;8802;52.402;4.920;2023-03-13T14:07:39;17.45;;;4.57;;
17369;SDS011;8802;52.402;4.920;2023-03-13T14:10:15;17.08;;;4.07;;
17369;SDS011;8802;52.402;4.920;2023-03-13T14:12:52;23.08;;;4.78;;
17369;SDS011;8802;52.402;4.920;2023-03-13T14:15:21;23.17;;;4.95;;
17369;SDS011;8802;52.402;4.920;2023-03-13T14:17:49;19.02;;;4.35;;
17369;SDS011;8802;52.402;4.920;2023-03-13T14:20:30;15.70;;;4.30;;
17369;SDS011;8802;52.402;4.920;2023-03-13T14:23:00;18.55;;;4.32;;
17369;SDS011;8802;52.402;4.920;2023-03-13T14:25:40;17.52;;;4.57;;
17369;SDS011;8802;52.402;4.920;2023-03-13T14:28:16;16.98;;;4.68;;
17369;SDS011;8802;52.402;4.920;2023-03-13T14:30:46;20.38;;;5.78;;
17369;SDS011;8802;52.402;4.920;2023-03-13T14:33:13;19.80;;;4.47;;
17369;SDS011;8802;52.402;4.920;2023-03-13T14:35:41;18.17;;;4.25;;
17369;SDS011;8802;52.402;4.920;2023-03-13T14:38:15;16.70;;;4.35;;
17369;SDS011;8802;52.402;4.920;2023-03-13T14:40:44;19.25;;;4.72;;
17369;SDS011;8802;52.402;4.920;2023-03-13T14:43:18;19.20;;;4.53;;
17369;SDS011;8802;52.402;4.920;2023-03-13T14:45:47;21.00;;;4.32;;
17369;SDS011;8802;52.402;4.920;2023-03-13T14:48:17;20.30;;;3.97;;
17369;SDS011;8802;52.402;4.920;2023-03-13T14:50:46;20.55;;;4.88;;
17369;SDS011;8802;52.402;4.920;2023-03-13T14:53:17;15.73;;;3.95;;
17369;SDS011;8802;52.402;4.920;2023-03-13T14:55:45;18.73;;;4.25;;
17369;SDS011;8802;52.402;4.920;2023-03-13T14:58:26;16.85;;;4.45;;
17369;SDS011;8802;52.402;4.920;2023-03-13T15:00:55;18.33;;;4.93;;
17369;SDS011;8802;52.402;4.920;2023-03-13T15:03:27;21.02;;;4.95;;
17369;SDS011;8802;52.402;4.920;2023-03-13T15:06:06;26.00;;;5.22;;
17369;SDS011;8802;52.402;4.920;2023-03-13T15:08:42;21.45;;;5.30;;
17369;SDS011;8802;52.402;4.920;2023-03-13T15:13:58;23.70;;;5.50;;
17369;SDS011;8802;52.402;4.920;2023-03-13T15:16:26;25.45;;;5.03;;
17369;SDS011;8802;52.402;4.920;2023-03-13T15:18:53;24.27;;;5.25;;
17369;SDS011;8802;52.402;4.920;2023-03-13T15:21:25;20.98;;;5.15;;
17369;SDS011;8802;52.402;4.920;2023-03-13T15:23:57;21.75;;;5.45;;
17369;SDS011;8802;52.402;4.920;2023-03-13T15:26:26;27.00;;;5.78;;
17369;SDS011;8802;52.402;4.920;2023-03-13T15:28:54;19.25;;;4.75;;
17369;SDS011;8802;52.402;4.920;2023-03-13T15:31:22;22.33;;;4.85;;
17369;SDS011;8802;52.402;4.920;2023-03-13T15:33:53;15.45;;;4.68;;
17369;SDS011;8802;52.402;4.920;2023-03-13T15:36:22;20.92;;;4.75;;
17369;SDS011;8802;52.402;4.920;2023-03-13T15:38:50;18.98;;;4.10;;
17369;SDS011;8802;52.402;4.920;2023-03-13T15:41:19;20.25;;;5.32;;
17369;SDS011;8802;52.402;4.920;2023-03-13T15:43:46;19.25;;;4.43;;
17369;SDS011;8802;52.402;4.920;2023-03-13T15:46:16;19.92;;;5.35;;